Time;durP1;ratioP1;P1;durP2;ratioP2;P2;SDS_P1;SDS_P2;PMS_P1;PMS_P2;Temp;Humidity;BMP_temperature;BMP_pressure;BME280_temperature;BME280_humidity;BME280_pressure;Samples;Min_cycle;Max_cycle;Signal;HPM_P1;HPM_P2
2022/06/02 00:03:22;;;;;;;3.83;1.98;;;;;;;24.41;41.28;100290.34;20751684;27;100215;-81
2022/06/02 00:13:59;;;;;;;3.33;2.00;;;;;;;24.39;41.47;100290.50;20767869;27;97812;-82
2022/06/02 00:24:25;;;;;;;3.05;2.05;;;;;;;24.39;41.49;100295.78;20774912;27;97210;-82
2022/06/02 00:34:36;;;;;;;2.38;1.98;;;;;;;24.39;41.37;100287.00;20755934;27;98923;-82
2022/06/02 00:45:07;;;;;;;2.30;1.87;;;;;;;24.37;41.37;100278.41;20754057;27;98099;-81
2022/06/02 01:06:17;;;;;;;1.77;1.52;;;;;;;24.32;41.48;100272.69;20791714;27;100470;-82
2022/06/02 01:16:44;;;;;;;2.92;1.80;;;;;;;24.27;41.75;100268.66;20786209;27;98389;-82
2022/06/02 01:26:58;;;;;;;3.83;1.85;;;;;;;24.30;41.55;100259.59;20778983;27;100592;-82
2022/06/02 01:37:16;;;;;;;3.55;1.70;;;;;;;24.29;41.81;100256.13;20772207;27;97269;-84
2022/06/02 01:47:38;;;;;;;3.45;1.70;;;;;;;24.27;41.67;100236.91;20774614;27;97440;-82
2022/06/02 01:58:25;;;;;;;4.47;1.73;;;;;;;24.25;41.88;100254.72;20788738;27;98720;-82
2022/06/02 02:08:39;;;;;;;2.95;1.70;;;;;;;24.24;41.95;100246.94;20522377;28;100391;-81
2022/06/02 02:19:03;;;;;;;3.03;1.70;;;;;;;24.23;41.74;100243.47;20709136;27;98006;-82
2022/06/02 02:29:18;;;;;;;2.15;1.70;;;;;;;24.22;42.00;100246.25;20794292;27;98290;-82
2022/06/02 02:39:47;;;;;;;1.85;1.52;;;;;;;24.23;41.83;100263.78;20785095;27;98365;-82
2022/06/02 02:49:54;;;;;;;1.40;1.30;;;;;;;24.20;41.84;100309.88;20781496;27;97383;-81
2022/06/02 02:59:57;;;;;;;1.50;1.40;;;;;;;24.19;42.03;100305.56;20760891;27;97484;-82
2022/06/02 03:10:17;;;;;;;2.13;1.30;;;;;;;24.17;41.96;100349.84;20785013;27;97993;-82
2022/06/02 03:20:34;;;;;;;2.30;1.50;;;;;;;24.17;42.17;100371.03;20776112;27;98148;-82
2022/06/02 03:30:48;;;;;;;1.40;1.30;;;;;;;24.15;42.11;100383.53;20777738;27;100523;-81
2022/06/02 03:41:09;;;;;;;2.42;1.40;;;;;;;24.16;42.02;100390.50;20774256;27;101943;-81
2022/06/02 03:51:17;;;;;;;1.40;1.25;;;;;;;24.13;42.08;100378.41;20776899;27;98426;-81
2022/06/02 04:01:28;;;;;;;2.17;1.77;;;;;;;24.10;42.43;100356.69;20762663;27;98268;-82
2022/06/02 04:22:28;;;;;;;3.38;1.70;;;;;;;24.04;43.33;100359.88;20781619;27;98702;-85
2022/06/02 04:32:46;;;;;;;6.10;2.20;;;;;;;23.90;44.73;100380.44;20765883;27;100356;-80
2022/06/02 04:43:24;;;;;;;2.50;2.10;;;;;;;23.75;45.26;100374.69;20791905;27;99752;-79
2022/06/02 04:53:43;;;;;;;16.50;2.28;;;;;;;23.76;45.62;100371.06;20776105;27;98800;-78
2022/06/02 05:04:01;;;;;;;6.60;2.40;;;;;;;23.57;46.21;100387.75;20773161;27;100041;-81
2022/06/02 05:14:31;;;;;;;3.47;2.40;;;;;;;23.43;46.52;100385.47;20751146;27;98980;-78
2022/06/02 05:24:43;;;;;;;4.65;2.92;;;;;;;23.09;48.29;100393.63;20735207;27;97466;-81
2022/06/02 05:35:21;;;;;;;6.88;3.40;;;;;;;22.88;48.22;100407.69;20778725;27;97192;-78
2022/06/02 05:45:30;;;;;;;4.10;3.33;;;;;;;22.68;49.30;100419.94;20767926;27;98073;-77
2022/06/02 05:56:03;;;;;;;9.15;2.53;;;;;;;22.97;47.91;100412.19;20796042;27;100641;-77
2022/06/02 06:06:40;;;;;;;4.95;2.10;;;;;;;23.18;47.06;100420.13;20768454;27;98017;-78
2022/06/02 06:16:54;;;;;;;5.88;2.28;;;;;;;23.34;46.78;100434.66;20807375;27;96964;-79
2022/06/02 06:27:19;;;;;;;3.15;2.08;;;;;;;23.42;46.41;100434.81;20786174;27;98177;-78
2022/06/02 06:37:40;;;;;;;4.07;2.00;;;;;;;23.50;45.91;100447.38;20769173;27;97257;-77
2022/06/02 06:47:45;;;;;;;4.38;2.05;;;;;;;23.55;46.00;100471.59;20797208;27;98083;-81
2022/06/02 06:58:19;;;;;;;4.68;2.10;;;;;;;23.60;45.83;100464.09;20794470;27;100836;-82
2022/06/02 07:08:53;;;;;;;2.92;2.10;;;;;;;23.65;45.36;100469.81;20799176;27;97153;-83
2022/06/02 07:19:23;;;;;;;2.47;1.75;;;;;;;23.71;45.39;100481.69;20825813;27;97680;-83
2022/06/02 07:30:03;;;;;;;2.28;1.70;;;;;;;23.76;45.28;100481.28;20807491;27;98740;-83
2022/06/02 07:40:16;;;;;;;1.65;1.52;;;;;;;23.79;45.38;100458.06;20818579;27;97783;-84
2022/06/02 07:50:30;;;;;;;3.50;1.95;;;;;;;23.83;45.26;100477.16;20808035;27;96930;-82
2022/06/02 08:01:01;;;;;;;3.72;1.90;;;;;;;23.86;45.58;100471.56;20809331;27;97260;-80
2022/06/02 08:11:39;;;;;;;3.75;2.70;;;;;;;23.83;44.57;100477.16;20813580;27;99802;-83
2022/06/02 08:21:51;;;;;;;6.05;2.28;;;;;;;23.82;44.13;100488.69;20822946;27;97597;-82
2022/06/02 08:32:02;;;;;;;;;;;;;;;23.77;43.48;100480.31;20817101;27;99683;-82
2022/06/02 08:42:43;;;;;;;5.05;2.20;;;;;;;23.75;43.73;100488.38;20811668;27;97631;-81
2022/06/02 08:53:11;;;;;;;2.93;2.37;;;;;;;23.73;43.98;100494.75;20819402;27;96836;-83
2022/06/02 09:03:36;;;;;;;6.15;2.40;;;;;;;23.73;44.76;100500.06;20819125;27;97287;-81
2022/06/02 09:13:53;;;;;;;5.25;2.45;;;;;;;23.77;45.05;100491.72;20823551;27;97093;-81
2022/06/02 09:24:30;;;;;;;2.85;2.00;;;;;;;23.78;44.79;100496.06;20832595;27;96988;-80
2022/06/02 09:35:20;;;;;;;2.58;2.10;;;;;;;23.85;44.96;100506.09;20838996;27;97487;-80
2022/06/02 09:45:30;;;;;;;3.50;2.03;;;;;;;23.88;44.91;100501.38;20828521;27;97186;-81
2022/06/02 09:55:55;;;;;;;4.20;1.92;;;;;;;23.94;45.10;100500.88;20840653;27;96797;-81
2022/06/02 10:06:20;;;;;;;3.28;2.33;;;;;;;24.00;44.92;100486.28;20824370;27;97248;-81
2022/06/02 10:16:59;;;;;;;5.28;2.22;;;;;;;24.08;45.27;100480.28;20806846;27;97227;-79
2022/06/02 10:27:24;;;;;;;6.97;3.00;;;;;;;24.16;45.77;100475.16;20806851;27;97696;-79
2022/06/02 10:37:32;;;;;;;4.00;2.60;;;;;;;24.23;46.03;100480.75;20795124;27;97761;-80
2022/06/02 10:47:57;;;;;;;3.60;2.40;;;;;;;24.33;46.39;100470.16;20817846;27;97309;-77
2022/06/02 10:57:58;;;;;;;5.07;2.50;;;;;;;24.48;46.19;100473.25;20776172;27;97678;-75
2022/06/02 11:08:14;;;;;;;2.70;2.40;;;;;;;24.53;46.25;100482.44;20770032;27;99528;-77
2022/06/02 11:18:33;;;;;;;5.15;2.60;;;;;;;24.54;46.15;100462.94;20745352;27;98859;-75
2022/06/02 11:28:59;;;;;;;2.78;2.40;;;;;;;24.57;45.93;100467.97;20778653;27;98467;-76
2022/06/02 11:39:05;;;;;;;2.60;2.33;;;;;;;24.67;46.01;100485.69;20777710;27;98458;-76
2022/06/02 11:49:18;;;;;;;5.43;2.42;;;;;;;24.74;45.93;100470.91;20779037;27;100798;-78
2022/06/02 11:59:25;;;;;;;4.57;2.38;;;;;;;24.84;45.78;100484.16;20794290;27;99330;-79
2022/06/02 12:09:54;;;;;;;2.63;2.08;;;;;;;24.90;44.97;100479.13;20812039;27;100722;-79
2022/06/02 12:20:01;;;;;;;4.20;2.13;;;;;;;24.95;44.52;100478.72;20793493;27;99963;-80
2022/06/02 12:30:05;;;;;;;4.03;2.10;;;;;;;25.02;45.04;100481.63;20793365;27;97386;-79
2022/06/02 12:40:28;;;;;;;3.20;2.35;;;;;;;25.09;44.62;100472.94;20797205;27;97690;-79
2022/06/02 12:50:34;;;;;;;3.60;1.70;;;;;;;25.18;44.04;100491.63;20807374;27;98142;-78
2022/06/02 13:00:56;;;;;;;1.50;1.40;;;;;;;25.25;42.89;100485.63;20796706;27;97573;-78
2022/06/02 13:11:20;;;;;;;1.80;1.50;;;;;;;25.34;41.93;100496.31;20798430;27;97670;-80
2022/06/02 13:21:26;;;;;;;1.58;1.48;;;;;;;25.43;41.70;100492.84;20811011;27;98386;-84
2022/06/02 13:31:49;;;;;;;1.70;1.40;;;;;;;25.51;42.24;100482.38;20789568;27;98370;-75
2022/06/02 13:42:02;;;;;;;7.20;1.50;;;;;;;25.60;41.87;100485.09;20802386;27;99115;-82
2022/06/02 13:52:24;;;;;;;3.35;1.15;;;;;;;25.64;41.08;100475.91;20795160;27;97522;-77
2022/06/02 14:02:48;;;;;;;6.75;1.40;;;;;;;25.69;41.05;100471.81;20797966;27;98270;-81
2022/06/02 14:13:13;;;;;;;2.95;1.25;;;;;;;25.70;40.41;100467.34;20802910;27;97736;-77
2022/06/02 14:23:43;;;;;;;1.65;1.00;;;;;;;25.70;39.48;100467.34;20805080;27;98766;-78
2022/06/02 14:33:57;;;;;;;2.17;1.10;;;;;;;25.76;39.42;100474.72;20769922;27;98706;-76
2022/06/02 14:44:22;;;;;;;7.10;1.02;;;;;;;25.84;39.74;100452.75;20799503;27;98180;-76
2022/06/02 14:54:40;;;;;;;6.43;1.10;;;;;;;25.87;39.95;100450.63;20776536;27;100045;-77
2022/06/02 15:05:02;;;;;;;3.08;1.40;;;;;;;25.94;41.06;100450.91;20740692;27;98532;-75
2022/06/02 15:15:18;;;;;;;1.52;1.10;;;;;;;25.99;40.18;100451.28;20736622;27;97729;-75
2022/06/02 15:25:31;;;;;;;5.28;1.13;;;;;;;26.05;39.68;100449.84;20771482;27;98626;-74
2022/06/02 15:35:50;;;;;;;1.13;1.02;;;;;;;26.13;38.75;100441.97;20795751;27;97329;-76
2022/06/02 15:46:27;;;;;;;3.40;1.10;;;;;;;26.25;39.39;100447.09;20770989;27;97690;-76
2022/06/02 15:56:54;;;;;;;3.80;1.20;;;;;;;26.30;39.85;100458.91;20768444;27;96950;-76
2022/06/02 16:07:19;;;;;;;2.45;0.90;;;;;;;26.35;38.67;100461.97;20772692;27;98436;-75
2022/06/02 16:17:42;;;;;;;2.60;1.15;;;;;;;26.40;38.17;100466.78;20753061;27;99515;-76
2022/06/02 16:28:20;;;;;;;1.35;1.00;;;;;;;26.44;38.33;100469.97;20750274;27;97760;-75
2022/06/02 16:38:59;;;;;;;1.75;1.10;;;;;;;26.46;38.50;100481.28;20763285;27;98638;-76
2022/06/02 16:49:21;;;;;;;2.72;1.00;;;;;;;26.46;37.80;100479.47;20721760;27;97493;-74
2022/06/02 16:59:41;;;;;;;1.63;1.10;;;;;;;26.56;36.12;100481.22;20751150;27;102629;-74
2022/06/02 17:09:57;;;;;;;10.27;3.77;;;;;;;26.55;35.01;100491.03;20737254;27;101252;-75
2022/06/02 17:20:20;;;;;;;6.63;3.72;;;;;;;26.47;35.84;100489.09;20777750;27;98738;-76
2022/06/02 17:30:41;;;;;;;3.63;1.98;;;;;;;26.49;33.38;100492.44;20757997;27;103533;-77
2022/06/02 17:41:17;;;;;;;5.20;2.55;;;;;;;26.41;32.80;100492.38;20753776;27;97482;-75
2022/06/02 17:51:26;;;;;;;6.53;3.15;;;;;;;26.34;34.17;100485.97;20778495;27;99831;-74
2022/06/02 18:01:39;;;;;;;5.60;2.30;;;;;;;26.27;33.57;100509.66;20768846;27;100661;-78
2022/06/02 18:12:03;;;;;;;5.82;3.00;;;;;;;26.25;36.33;100508.16;20785644;27;99082;-75
2022/06/02 18:22:13;;;;;;;5.25;2.38;;;;;;;26.19;36.82;100506.91;20760802;27;96924;-75
2022/06/02 18:32:35;;;;;;;6.77;2.27;;;;;;;26.25;36.81;100521.41;20772891;27;99865;-76
2022/06/02 18:43:26;;;;;;;6.00;2.10;;;;;;;26.25;37.94;100532.03;20759386;27;100514;-75
2022/06/02 18:54:04;;;;;;;6.30;2.13;;;;;;;26.23;38.57;100553.38;20710921;27;98330;-78
2022/06/02 19:04:24;;;;;;;3.83;2.10;;;;;;;26.20;38.02;100556.34;20745794;27;104417;-77
2022/06/02 19:14:51;;;;;;;5.47;1.80;;;;;;;26.15;38.77;100579.84;20736525;27;100470;-76
2022/06/02 19:25:12;;;;;;;4.82;1.90;;;;;;;26.07;39.04;100572.63;20753587;27;101010;-76
2022/06/02 19:35:28;;;;;;;4.43;1.70;;;;;;;25.96;39.10;100570.13;20767878;27;100029;-75
2022/06/02 19:46:09;;;;;;;3.38;1.90;;;;;;;25.93;39.07;100568.59;20778448;27;102072;-77
2022/06/02 19:56:19;;;;;;;4.93;1.90;;;;;;;25.88;38.87;100561.06;20732762;27;100249;-74
2022/06/02 20:06:29;;;;;;;7.47;2.00;;;;;;;25.87;39.22;100555.94;20770732;27;100124;-76
2022/06/02 20:16:32;;;;;;;2.88;1.70;;;;;;;25.83;39.08;100565.13;20770317;27;98275;-77
2022/06/02 20:26:41;;;;;;;4.65;1.77;;;;;;;25.80;39.56;100579.53;20792762;27;96906;-76
2022/06/02 20:37:08;;;;;;;5.38;1.98;;;;;;;25.77;39.73;100589.59;20784092;27;100150;-75
2022/06/02 20:47:28;;;;;;;2.08;1.60;;;;;;;25.70;39.75;100592.00;20760124;27;97491;-75
2022/06/02 20:57:37;;;;;;;5.05;1.75;;;;;;;25.69;39.91;100600.94;20756082;27;97903;-74
2022/06/02 21:07:46;;;;;;;5.72;2.00;;;;;;;25.67;39.89;100605.53;20758535;27;97032;-76
2022/06/02 21:18:00;;;;;;;3.08;2.10;;;;;;;25.64;39.81;100627.88;20796636;27;100387;-76
2022/06/02 21:28:17;;;;;;;2.33;1.77;;;;;;;25.62;40.14;100629.00;20791262;27;100798;-76
2022/06/02 21:38:52;;;;;;;2.97;1.70;;;;;;;25.59;40.31;100642.56;20793939;27;100475;-76
2022/06/02 21:49:28;;;;;;;2.13;1.60;;;;;;;25.55;40.16;100634.88;20713941;27;98264;-74
2022/06/02 22:00:07;;;;;;;2.05;1.50;;;;;;;25.52;40.34;100631.66;20758214;27;99203;-75
2022/06/02 22:10:29;;;;;;;3.40;1.80;;;;;;;25.52;40.33;100634.31;20789596;27;100487;-75
2022/06/02 22:21:01;;;;;;;2.30;1.50;;;;;;;25.49;40.00;100640.75;20791610;27;100560;-75
2022/06/02 22:31:05;;;;;;;2.38;1.67;;;;;;;25.49;40.19;100627.47;20771566;27;98030;-76
2022/06/02 22:41:27;;;;;;;2.92;1.83;;;;;;;25.46;40.06;100634.88;20792840;27;97720;-75
2022/06/02 22:51:45;;;;;;;2.90;1.77;;;;;;;25.44;40.04;100644.78;20786594;27;98614;-76
2022/06/02 23:02:14;;;;;;;1.85;1.50;;;;;;;25.42;40.11;100647.59;20784134;27;98541;-75
2022/06/02 23:12:39;;;;;;;1.63;1.52;;;;;;;25.40;40.00;100655.69;20766146;27;100025;-75
2022/06/02 23:22:52;;;;;;;2.53;1.70;;;;;;;25.39;40.16;100669.09;20789264;27;97045;-76
2022/06/02 23:33:24;;;;;;;1.98;1.70;;;;;;;25.36;40.12;100688.69;20778902;27;97326;-75
2022/06/02 23:44:11;;;;;;;1.70;1.60;;;;;;;25.35;40.14;100731.25;20785740;27;97266;-75
2022/06/02 23:54:24;;;;;;;2.53;1.55;;;;;;;25.31;39.85;100721.91;20786635;27;97030;-75
